createdAt,value
2019-01-26T00:02:25.529Z,83.03
2019-01-26T00:04:57.225Z,83.13
2019-01-26T00:07:29.203Z,83.13
2019-01-26T00:10:00.941Z,84.67
2019-01-26T00:12:32.618Z,79.67
2019-01-26T00:15:10.372Z,87.00
2019-01-26T00:17:42.069Z,91.47
2019-01-26T00:20:13.750Z,82.90
2019-01-26T00:22:45.457Z,82.53
2019-01-26T00:25:17.141Z,86.87
2019-01-26T00:27:48.843Z,78.23
2019-01-26T00:30:20.549Z,77.80
2019-01-26T00:32:52.238Z,87.93
2019-01-26T00:35:23.942Z,85.70
2019-01-26T00:37:55.624Z,82.80
2019-01-26T00:40:27.370Z,84.40
2019-01-26T00:42:59.046Z,84.87
2019-01-26T00:45:30.757Z,85.37
2019-01-26T00:48:02.457Z,90.33
2019-01-26T00:50:34.147Z,90.63
2019-01-26T00:53:05.846Z,89.47
2019-01-26T00:55:37.823Z,88.13
2019-01-26T00:58:09.895Z,88.47
2019-01-26T01:00:41.584Z,91.13
2019-01-26T01:03:13.623Z,89.63
2019-01-26T01:05:45.318Z,79.50
2019-01-26T01:08:17.117Z,85.17
2019-01-26T01:10:48.826Z,82.93
2019-01-26T01:13:20.513Z,77.10
2019-01-26T01:15:52.224Z,83.07
2019-01-26T01:18:23.898Z,83.47
2019-01-26T01:20:55.675Z,87.33
2019-01-26T01:23:27.396Z,90.30
2019-01-26T01:25:59.078Z,88.40
2019-01-26T01:28:30.775Z,89.80
2019-01-26T01:31:02.648Z,78.10
2019-01-26T01:33:34.410Z,82.07
2019-01-26T01:36:06.167Z,88.53
2019-01-26T01:38:37.951Z,88.47
2019-01-26T01:41:09.648Z,84.73
2019-01-26T01:43:41.443Z,82.97
2019-01-26T01:46:13.127Z,83.80
2019-01-26T01:48:44.816Z,86.07
2019-01-26T01:51:16.526Z,89.57
2019-01-26T01:53:48.479Z,83.43
2019-01-26T01:56:20.455Z,81.77
2019-01-26T01:58:52.144Z,82.83
2019-01-26T02:01:23.820Z,84.13
2019-01-26T02:03:55.573Z,82.10
2019-01-26T02:06:27.257Z,86.13
2019-01-26T02:08:58.943Z,88.67
2019-01-26T02:11:30.615Z,86.10
2019-01-26T02:14:02.303Z,78.97
2019-01-26T02:16:33.993Z,85.77
2019-01-26T02:19:05.744Z,84.37
2019-01-26T02:21:37.437Z,89.47
2019-01-26T02:24:09.481Z,89.93
2019-01-26T02:26:41.165Z,84.33
2019-01-26T02:29:12.856Z,85.53
2019-01-26T02:31:44.869Z,84.30
2019-01-26T02:34:16.565Z,90.17
2019-01-26T02:36:48.315Z,86.10
2019-01-26T02:39:20.003Z,84.70
2019-01-26T02:41:51.674Z,82.80
2019-01-26T02:44:23.359Z,88.40
2019-01-26T02:46:58.026Z,88.87
2019-01-26T02:49:28.466Z,85.83
2019-01-26T02:52:00.103Z,91.53
2019-01-26T02:54:31.799Z,89.00
2019-01-26T02:57:03.504Z,92.87
2019-01-26T02:59:35.257Z,82.57
2019-01-26T03:02:07.298Z,78.40
2019-01-26T03:04:39.152Z,83.10
2019-01-26T03:07:10.855Z,90.43
2019-01-26T03:09:42.538Z,91.27
2019-01-26T03:12:14.241Z,83.87
2019-01-26T03:14:45.928Z,82.13
2019-01-26T03:17:17.692Z,97.23
2019-01-26T03:19:49.713Z,86.27
2019-01-26T03:22:21.403Z,84.23
2019-01-26T03:24:53.442Z,93.63
2019-01-26T03:27:25.112Z,90.90
2019-01-26T03:29:56.812Z,83.43
2019-01-26T03:32:28.823Z,93.40
2019-01-26T03:35:00.505Z,93.17
2019-01-26T03:37:32.198Z,84.17
2019-01-26T03:40:05.976Z,92.70
2019-01-26T03:42:37.663Z,96.77
2019-01-26T03:45:12.555Z,100.13
2019-01-26T03:47:46.010Z,87.60
2019-01-26T03:50:17.695Z,96.83
2019-01-26T03:52:49.955Z,93.90
2019-01-26T03:55:22.629Z,89.87
2019-01-26T03:57:54.333Z,90.93
2019-01-26T04:00:28.038Z,93.17
2019-01-26T04:02:59.736Z,94.40
2019-01-26T04:05:31.497Z,96.47
2019-01-26T04:08:04.151Z,102.47
2019-01-26T04:10:36.160Z,89.10
2019-01-26T04:13:07.869Z,104.70
2019-01-26T04:15:39.550Z,94.77
2019-01-26T04:18:11.535Z,104.17
2019-01-26T04:20:43.307Z,98.63
2019-01-26T04:23:14.986Z,97.53
2019-01-26T04:25:46.676Z,95.07
2019-01-26T04:28:18.781Z,94.63
2019-01-26T04:30:50.465Z,90.80
2019-01-26T04:33:22.164Z,104.07
2019-01-26T04:35:53.835Z,91.53
2019-01-26T04:38:25.534Z,93.83
2019-01-26T04:40:57.234Z,95.70
2019-01-26T04:43:28.929Z,99.80
2019-01-26T04:46:00.992Z,95.80
2019-01-26T04:48:32.671Z,94.03
2019-01-26T04:51:04.451Z,101.43
2019-01-26T04:53:36.407Z,105.40
2019-01-26T04:56:08.170Z,99.47
2019-01-26T04:58:43.016Z,92.23
2019-01-26T05:01:14.781Z,101.20
2019-01-26T05:03:46.511Z,94.43
2019-01-26T05:06:18.523Z,107.97
2019-01-26T05:08:50.387Z,102.73
2019-01-26T05:11:22.443Z,97.57
2019-01-26T05:13:54.143Z,93.77
2019-01-26T05:16:25.825Z,93.40
2019-01-26T05:18:57.683Z,88.33
2019-01-26T05:21:29.429Z,90.83
2019-01-26T05:24:01.127Z,93.87
2019-01-26T05:26:33.169Z,98.37
2019-01-26T05:29:05.128Z,100.70
2019-01-26T05:31:37.078Z,95.60
2019-01-26T05:34:09.045Z,90.80
2019-01-26T05:36:40.894Z,98.67
2019-01-26T05:39:12.583Z,98.80
2019-01-26T05:41:44.280Z,94.73
2019-01-26T05:44:16.469Z,113.27
2019-01-26T05:46:48.519Z,98.67
2019-01-26T05:49:20.280Z,93.60
2019-01-26T05:51:52.232Z,93.07
2019-01-26T05:54:24.192Z,92.20
2019-01-26T05:56:55.872Z,95.67
2019-01-26T05:59:27.954Z,92.37
2019-01-26T06:01:59.799Z,90.90
2019-01-26T06:04:31.506Z,93.40
2019-01-26T06:07:03.190Z,92.97
2019-01-26T06:09:35.153Z,86.30
2019-01-26T06:12:06.840Z,99.50
2019-01-26T06:14:38.524Z,87.13
2019-01-26T06:17:10.211Z,96.67
2019-01-26T06:19:41.879Z,93.90
2019-01-26T06:22:13.586Z,89.57
2019-01-26T06:24:45.260Z,91.10
2019-01-26T06:27:16.955Z,84.50
2019-01-26T06:29:48.631Z,84.83
2019-01-26T06:32:20.694Z,94.83
2019-01-26T06:34:52.494Z,92.70
2019-01-26T06:37:24.287Z,86.87
2019-01-26T06:39:55.969Z,90.73
2019-01-26T06:42:27.677Z,84.63
2019-01-26T06:44:59.359Z,92.43
2019-01-26T06:47:31.065Z,88.30
2019-01-26T06:50:02.813Z,93.80
2019-01-26T06:52:35.435Z,85.63
2019-01-26T06:55:10.227Z,84.13
2019-01-26T06:57:41.905Z,91.20
2019-01-26T07:00:23.759Z,89.93
2019-01-26T07:02:56.006Z,81.27
2019-01-26T07:05:32.314Z,88.63
2019-01-26T07:08:04.360Z,89.03
2019-01-26T07:10:36.060Z,79.97
2019-01-26T07:13:07.759Z,78.00
2019-01-26T07:15:39.441Z,82.97
2019-01-26T07:18:11.122Z,80.73
2019-01-26T07:20:42.825Z,85.63
2019-01-26T07:23:14.498Z,84.63
2019-01-26T07:25:46.187Z,91.37
2019-01-26T07:28:17.871Z,85.97
2019-01-26T07:30:49.555Z,87.37
2019-01-26T07:33:21.242Z,84.80
2019-01-26T07:35:52.944Z,87.80
2019-01-26T07:38:24.622Z,92.27
2019-01-26T07:40:56.315Z,92.93
2019-01-26T07:43:27.995Z,92.77
2019-01-26T07:45:59.686Z,90.13
2019-01-26T07:48:31.680Z,96.77
2019-01-26T07:51:03.354Z,86.00
2019-01-26T07:53:35.056Z,97.07
2019-01-26T07:56:06.726Z,89.40
2019-01-26T07:58:38.422Z,87.10
2019-01-26T08:01:10.111Z,96.77
2019-01-26T08:03:41.811Z,91.23
2019-01-26T08:06:13.494Z,100.40
2019-01-26T08:08:45.211Z,104.13
2019-01-26T08:11:16.884Z,102.13
2019-01-26T08:13:48.594Z,94.70
2019-01-26T08:16:20.620Z,87.50
2019-01-26T08:18:52.321Z,93.80
2019-01-26T08:21:24.015Z,99.20
2019-01-26T08:23:55.684Z,99.73
2019-01-26T08:26:27.393Z,94.93
2019-01-26T08:28:59.073Z,95.17
2019-01-26T08:31:30.773Z,107.83
2019-01-26T08:34:02.462Z,100.43
2019-01-26T08:36:34.138Z,94.73
2019-01-26T08:39:07.954Z,97.27
2019-01-26T08:41:39.628Z,94.03
2019-01-26T08:44:11.310Z,89.17
2019-01-26T08:46:43.366Z,99.23
2019-01-26T08:49:15.046Z,97.37
2019-01-26T08:51:46.753Z,100.50
2019-01-26T08:54:18.447Z,87.23
2019-01-26T08:56:50.123Z,98.90
2019-01-26T08:59:22.160Z,99.33
2019-01-26T09:01:55.557Z,97.93
2019-01-26T09:04:27.321Z,91.93
2019-01-26T09:06:59.001Z,85.97
2019-01-26T09:09:30.686Z,84.80
2019-01-26T09:12:02.644Z,83.50
2019-01-26T09:14:34.663Z,81.20
2019-01-26T09:17:06.376Z,78.80
2019-01-26T09:19:38.380Z,82.27
2019-01-26T09:22:10.065Z,80.90
2019-01-26T09:24:41.738Z,77.67
2019-01-26T09:27:13.423Z,85.97
2019-01-26T09:29:45.097Z,79.40
2019-01-26T09:32:16.787Z,74.57
2019-01-26T09:34:48.458Z,78.63
2019-01-26T09:37:20.136Z,73.93
2019-01-26T09:39:51.820Z,76.17
2019-01-26T09:59:46.337Z,68.40
2019-01-26T10:02:18.314Z,72.47
2019-01-26T10:04:50.082Z,69.47
2019-01-26T10:07:21.863Z,74.40
2019-01-26T10:09:53.544Z,74.17
2019-01-26T10:12:25.341Z,74.63
2019-01-26T10:14:57.020Z,78.90
2019-01-26T10:17:29.080Z,75.67
2019-01-26T10:20:00.766Z,78.93
2019-01-26T10:22:32.894Z,80.53
2019-01-26T10:25:07.074Z,81.30
2019-01-26T10:27:38.829Z,72.43
2019-01-26T10:30:32.010Z,83.13
2019-01-26T10:33:03.952Z,85.63
2019-01-26T10:35:37.355Z,87.30
2019-01-26T10:38:10.068Z,89.80
2019-01-26T10:40:43.791Z,82.03
2019-01-26T10:43:17.541Z,83.77
2019-01-26T10:45:49.221Z,93.07
2019-01-26T10:48:21.034Z,81.80
2019-01-26T10:50:52.717Z,91.27
2019-01-26T10:53:24.525Z,88.60
2019-01-26T10:55:56.204Z,92.47
2019-01-26T10:58:27.947Z,88.67
2019-01-26T11:01:00.081Z,94.87
2019-01-26T11:03:31.837Z,98.03
2019-01-26T11:06:03.514Z,91.73
2019-01-26T11:08:35.190Z,82.77
2019-01-26T11:11:06.909Z,87.60
2019-01-26T11:13:38.575Z,93.53
2019-01-26T11:16:10.351Z,93.13
2019-01-26T11:18:42.088Z,93.20
2019-01-26T11:21:13.838Z,84.60
2019-01-26T11:23:45.676Z,81.07
2019-01-26T11:26:17.430Z,92.63
2019-01-26T11:28:49.097Z,84.43
2019-01-26T11:31:21.450Z,91.57
2019-01-26T11:33:53.118Z,89.60
2019-01-26T11:36:24.871Z,98.47
2019-01-26T11:38:56.538Z,81.03
2019-01-26T11:41:28.984Z,99.00
2019-01-26T11:44:00.694Z,96.67
2019-01-26T11:46:32.351Z,85.83
2019-01-26T11:49:04.501Z,100.40
2019-01-26T11:51:37.896Z,78.30
2019-01-26T11:54:09.564Z,92.47
2019-01-26T11:56:44.620Z,88.93
2019-01-26T11:59:18.034Z,94.70
2019-01-26T12:01:51.441Z,88.63
2019-01-26T12:04:25.036Z,84.20
2019-01-26T12:06:58.443Z,95.33
2019-01-26T12:09:30.107Z,82.97
2019-01-26T12:12:01.895Z,76.80
2019-01-26T12:14:33.567Z,87.97
2019-01-26T12:17:06.244Z,82.53
2019-01-26T12:19:38.348Z,85.30
2019-01-26T12:22:10.024Z,82.47
2019-01-26T12:24:41.691Z,89.70
2019-01-26T12:27:13.716Z,82.30
2019-01-26T12:29:45.560Z,81.17
2019-01-26T12:32:17.358Z,89.90
2019-01-26T12:34:49.097Z,87.80
2019-01-26T12:37:20.778Z,91.53
2019-01-26T12:39:52.455Z,86.17
2019-01-26T12:42:24.483Z,76.73
2019-01-26T12:44:56.449Z,83.43
2019-01-26T12:47:28.194Z,92.80
2019-01-26T12:49:59.872Z,80.73
2019-01-26T12:52:31.568Z,72.37
2019-01-26T12:55:03.584Z,82.53
2019-01-26T12:57:35.430Z,82.43
2019-01-26T13:00:14.515Z,80.27
2019-01-26T13:02:46.248Z,80.10
2019-01-26T13:05:17.931Z,75.30
2019-01-26T13:07:49.600Z,78.07
2019-01-26T13:10:28.912Z,79.13
2019-01-26T13:13:00.722Z,69.20
2019-01-26T13:15:32.434Z,82.10
2019-01-26T13:18:04.293Z,69.37
2019-01-26T13:20:36.134Z,72.67
2019-01-26T13:23:07.942Z,72.83
2019-01-26T13:25:40.081Z,65.07
2019-01-26T13:28:11.845Z,82.53
2019-01-26T13:30:43.526Z,74.77
2019-01-26T13:33:15.534Z,69.30
2019-01-26T13:35:47.240Z,67.40
2019-01-26T13:38:19.176Z,55.17
2019-01-26T13:40:50.854Z,65.53
2019-01-26T13:43:22.708Z,56.17
2019-01-26T13:45:57.331Z,59.97
2019-01-26T13:48:29.020Z,57.20
2019-01-26T13:51:00.694Z,58.23
2019-01-26T13:53:32.470Z,57.40
2019-01-26T13:56:04.434Z,53.57
2019-01-26T13:58:36.177Z,61.03
2019-01-26T14:01:07.860Z,56.87
2019-01-26T14:03:39.523Z,58.97
2019-01-26T14:06:11.274Z,54.90
2019-01-26T14:08:42.999Z,56.13
2019-01-26T14:11:15.019Z,48.50
2019-01-26T14:13:47.345Z,57.67
2019-01-26T14:16:19.342Z,48.03
2019-01-26T14:18:51.448Z,59.70
2019-01-26T14:21:23.306Z,54.47
2019-01-26T14:23:54.967Z,51.53
2019-01-26T14:26:26.667Z,47.97
2019-01-26T14:28:58.328Z,46.70
2019-01-26T14:31:30.194Z,48.67
2019-01-26T14:34:01.867Z,43.03
2019-01-26T14:36:33.621Z,43.13
2019-01-26T14:39:08.089Z,42.37
2019-01-26T14:41:39.845Z,48.13
2019-01-26T14:44:11.577Z,36.73
2019-01-26T14:46:44.030Z,37.07
2019-01-26T14:49:15.726Z,34.93
2019-01-26T14:51:47.387Z,39.47
2019-01-26T14:54:19.107Z,33.47
2019-01-26T14:56:50.763Z,36.40
2019-01-26T14:59:22.462Z,26.17
2019-01-26T15:01:54.198Z,29.67
2019-01-26T15:04:26.046Z,33.83
2019-01-26T15:06:57.712Z,27.97
2019-01-26T15:09:29.704Z,36.60
2019-01-26T15:12:01.441Z,29.43
2019-01-26T15:14:34.090Z,27.23
2019-01-26T15:17:05.928Z,24.53
2019-01-26T15:19:37.631Z,29.10
2019-01-26T15:22:09.647Z,31.17
2019-01-26T15:24:41.341Z,33.03
2019-01-26T15:27:13.006Z,34.83
2019-01-26T15:29:44.702Z,31.67
2019-01-26T15:32:16.381Z,26.23
2019-01-26T15:34:48.058Z,32.83
2019-01-26T15:37:20.592Z,29.23
2019-01-26T15:39:52.700Z,26.27
2019-01-26T15:42:24.442Z,34.27
2019-01-26T15:44:56.148Z,29.23
2019-01-26T15:47:27.822Z,29.30
2019-01-26T15:49:59.503Z,31.67
2019-01-26T15:52:31.246Z,27.93
2019-01-26T15:55:03.096Z,32.20
2019-01-26T15:57:35.093Z,26.37
2019-01-26T16:00:11.750Z,27.27
2019-01-26T16:02:43.497Z,28.57
2019-01-26T16:05:15.195Z,36.20
2019-01-26T16:07:46.865Z,29.77
2019-01-26T16:10:24.328Z,29.33
2019-01-26T16:12:58.058Z,31.87
2019-01-26T16:15:33.115Z,30.20
2019-01-26T16:18:08.287Z,28.83
2019-01-26T16:20:41.267Z,36.90
2019-01-26T16:23:12.959Z,37.20
2019-01-26T16:25:44.636Z,37.10
2019-01-26T16:28:16.403Z,41.57
2019-01-26T16:30:48.070Z,39.33
2019-01-26T16:33:19.748Z,40.83
2019-01-26T16:35:51.422Z,47.27
2019-01-26T16:38:23.170Z,39.70
2019-01-26T16:40:55.188Z,42.40
2019-01-26T16:43:26.882Z,37.27
2019-01-26T16:45:58.617Z,43.03
2019-01-26T16:48:30.308Z,40.10
2019-01-26T16:51:02.332Z,41.90
2019-01-26T16:53:34.101Z,56.83
2019-01-26T16:56:05.767Z,48.80
2019-01-26T16:58:37.524Z,46.47
2019-01-26T17:01:09.197Z,49.20
2019-01-26T17:03:41.342Z,43.60
2019-01-26T17:06:13.396Z,50.13
2019-01-26T17:08:45.072Z,52.07
2019-01-26T17:11:16.809Z,51.30
2019-01-26T17:13:48.495Z,49.63
2019-01-26T17:16:20.185Z,55.63
2019-01-26T17:18:51.871Z,52.13
2019-01-26T17:21:23.535Z,51.27
2019-01-26T17:23:55.221Z,50.40
2019-01-26T17:26:26.889Z,46.27
2019-01-26T17:28:59.037Z,54.00
2019-01-26T17:31:30.795Z,54.27
2019-01-26T17:34:03.659Z,61.43
2019-01-26T17:36:35.335Z,54.43
2019-01-26T17:39:09.225Z,57.23
2019-01-26T17:41:40.904Z,56.80
2019-01-26T17:44:12.937Z,51.20
2019-01-26T17:46:44.619Z,49.63
2019-01-26T17:49:16.296Z,56.27
2019-01-26T17:51:48.433Z,43.93
2019-01-26T17:54:20.116Z,47.37
2019-01-26T17:56:51.972Z,50.10
2019-01-26T17:59:23.908Z,45.00
2019-01-26T18:01:55.670Z,51.53
2019-01-26T18:04:27.580Z,50.50
2019-01-26T18:06:59.637Z,33.47
2019-01-26T18:09:31.592Z,32.67
2019-01-26T18:12:04.460Z,35.40
2019-01-26T18:14:36.476Z,35.03
2019-01-26T18:17:08.152Z,34.70
2019-01-26T18:19:39.838Z,33.20
2019-01-26T18:22:11.505Z,28.90
2019-01-26T18:24:44.359Z,28.30
2019-01-26T18:27:16.045Z,29.97
2019-01-26T18:29:47.710Z,26.13
2019-01-26T18:32:20.902Z,29.87
2019-01-26T18:34:52.806Z,30.10
2019-01-26T18:37:25.216Z,26.93
2019-01-26T18:39:56.971Z,25.57
2019-01-26T18:42:28.758Z,28.27
2019-01-26T18:45:00.408Z,25.20
2019-01-26T18:47:32.088Z,28.60
2019-01-26T18:50:06.532Z,24.33
2019-01-26T18:52:38.211Z,22.97
2019-01-26T18:55:09.942Z,23.87
2019-01-26T18:57:41.630Z,25.23
2019-01-26T19:00:20.542Z,24.10
2019-01-26T19:03:03.577Z,29.57
2019-01-26T19:05:38.964Z,26.43
2019-01-26T19:08:10.711Z,28.53
2019-01-26T19:10:42.414Z,31.23
2019-01-26T19:13:15.816Z,30.43
2019-01-26T19:15:47.500Z,31.63
2019-01-26T19:18:19.656Z,29.83
2019-01-26T19:20:51.328Z,31.97
2019-01-26T19:23:23.611Z,33.00
2019-01-26T19:25:56.639Z,32.37
2019-01-26T19:28:28.344Z,35.03
2019-01-26T19:30:59.999Z,33.33
2019-01-26T19:33:31.756Z,34.13
2019-01-26T19:36:03.888Z,30.03
2019-01-26T19:38:35.640Z,28.60
2019-01-26T19:41:07.327Z,30.43
2019-01-26T19:43:39.062Z,31.27
2019-01-26T19:46:11.057Z,33.87
2019-01-26T19:48:42.988Z,33.50
2019-01-26T19:51:14.675Z,35.80
2019-01-26T19:53:46.356Z,27.93
2019-01-26T19:56:18.788Z,29.33
2019-01-26T20:03:11.699Z,23.43
2019-01-26T20:05:48.034Z,22.60
2019-01-26T20:08:16.762Z,22.13
2019-01-26T20:10:48.440Z,25.47
2019-01-26T20:13:20.642Z,30.97
2019-01-26T20:15:53.149Z,30.60
2019-01-26T20:18:24.811Z,33.13
2019-01-26T20:20:56.489Z,34.37
2019-01-26T20:23:28.445Z,31.33
2019-01-26T20:26:00.119Z,38.00
2019-01-26T20:28:31.778Z,38.60
2019-01-26T20:31:03.449Z,35.83
2019-01-26T20:33:35.205Z,32.00
2019-01-26T20:36:06.868Z,26.00
2019-01-26T20:38:38.880Z,22.33
2019-01-26T20:41:10.620Z,20.03
2019-01-26T20:43:42.282Z,22.60
2019-01-26T20:46:14.312Z,21.63
2019-01-26T20:48:45.991Z,20.37
2019-01-26T20:51:17.649Z,19.33
2019-01-26T20:53:49.320Z,15.43
2019-01-26T20:56:21.054Z,18.00
2019-01-26T20:58:52.824Z,15.10
2019-01-26T21:01:24.537Z,17.90
2019-01-26T21:03:56.182Z,15.27
2019-01-26T21:06:29.342Z,14.67
2019-01-26T21:09:01.131Z,16.37
2019-01-26T21:11:32.793Z,16.60
2019-01-26T21:14:05.253Z,14.63
2019-01-26T21:16:36.910Z,16.60
2019-01-26T21:19:09.374Z,15.73
2019-01-26T21:21:41.011Z,15.27
2019-01-26T21:24:12.708Z,14.90
2019-01-26T21:26:44.646Z,15.53
2019-01-26T21:29:16.309Z,15.30
2019-01-26T21:31:47.964Z,14.00
2019-01-26T21:34:19.702Z,12.83
2019-01-26T21:36:51.436Z,13.77
2019-01-26T21:39:23.135Z,12.43
2019-01-26T21:41:56.628Z,13.53
2019-01-26T21:44:28.891Z,11.90
2019-01-26T21:47:01.160Z,11.20
2019-01-26T21:49:32.821Z,10.13
2019-01-26T21:52:04.760Z,10.57
2019-01-26T21:54:36.655Z,13.13
2019-01-26T21:57:08.303Z,10.50
2019-01-26T21:59:40.048Z,11.57
2019-01-26T22:02:11.790Z,9.30
2019-01-26T22:04:43.446Z,13.97
2019-01-26T22:07:15.482Z,17.83
2019-01-26T22:09:47.166Z,21.07
2019-01-26T22:12:18.908Z,22.90
2019-01-26T22:14:50.571Z,20.27
2019-01-26T22:17:22.593Z,22.63
2019-01-26T22:19:54.253Z,19.30
2019-01-26T22:22:25.932Z,19.97
2019-01-26T22:24:59.103Z,15.93
2019-01-26T22:27:30.791Z,12.60
2019-01-26T22:30:02.594Z,12.27
2019-01-26T22:32:34.280Z,10.67
2019-01-26T22:35:06.604Z,10.30
2019-01-26T22:37:38.349Z,9.87
2019-01-26T22:40:20.372Z,11.60
2019-01-26T22:42:52.172Z,16.23
2019-01-26T22:45:23.958Z,13.43
2019-01-26T22:47:55.668Z,18.67
2019-01-26T22:50:30.484Z,18.03
2019-01-26T22:53:03.125Z,20.70
2019-01-26T22:55:34.780Z,21.63
2019-01-26T22:58:08.287Z,17.83
2019-01-26T23:01:03.654Z,16.30
2019-01-26T23:03:45.794Z,14.30
2019-01-26T23:06:49.372Z,15.57
2019-01-26T23:09:28.938Z,15.47
2019-01-26T23:12:18.283Z,14.10
2019-01-26T23:15:17.253Z,13.63
2019-01-26T23:18:31.266Z,11.03
2019-01-26T23:21:19.544Z,11.03
2019-01-26T23:24:01.593Z,14.20
2019-01-26T23:27:08.990Z,14.03
2019-01-26T23:29:58.235Z,15.13
2019-01-26T23:32:30.094Z,15.00
2019-01-26T23:35:01.833Z,16.30
2019-01-26T23:37:33.916Z,17.43
2019-01-26T23:40:10.533Z,19.50
2019-01-26T23:42:42.593Z,22.57
2019-01-26T23:45:14.330Z,25.80
2019-01-26T23:47:46.018Z,21.27
2019-01-26T23:50:17.685Z,21.77
2019-01-26T23:52:49.695Z,20.40
2019-01-26T23:55:21.433Z,17.67
2019-01-26T23:57:53.106Z,17.93
